createdAt,value
2022-12-14T00:01:41.900Z,5.18
2022-12-14T00:04:15.573Z,5.72
2022-12-14T00:06:42.807Z,5.18
2022-12-14T00:09:10.211Z,4.75
2022-12-14T00:11:37.478Z,5.20
2022-12-14T00:14:05.471Z,4.80
2022-12-14T00:16:34.584Z,5.50
2022-12-14T00:19:02.394Z,4.97
2022-12-14T00:21:29.979Z,5.47
2022-12-14T00:23:59.621Z,5.50
2022-12-14T00:26:29.227Z,6.60
2022-12-14T00:28:56.857Z,7.13
2022-12-14T00:31:25.272Z,5.40
2022-12-14T00:33:52.804Z,5.18
2022-12-14T00:36:20.448Z,7.28
2022-12-14T00:38:47.785Z,5.75
2022-12-14T00:41:15.031Z,5.85
2022-12-14T00:43:42.346Z,7.43
2022-12-14T00:46:09.677Z,4.68
2022-12-14T00:48:36.996Z,7.00
2022-12-14T00:51:04.539Z,7.25
2022-12-14T00:53:31.822Z,5.72
2022-12-14T00:56:05.752Z,4.68
2022-12-14T00:58:33.005Z,6.00
2022-12-14T01:01:01.991Z,4.50
2022-12-14T01:03:29.660Z,5.60
2022-12-14T01:05:57.535Z,4.18
2022-12-14T01:08:25.280Z,4.68
2022-12-14T01:10:53.286Z,5.40
2022-12-14T01:13:20.518Z,6.18
2022-12-14T01:15:47.846Z,5.78
2022-12-14T01:18:15.189Z,5.38
2022-12-14T01:20:42.448Z,7.32
2022-12-14T01:23:09.661Z,6.32
2022-12-14T01:25:36.940Z,5.63
2022-12-14T01:28:04.628Z,5.75
2022-12-14T01:30:31.924Z,4.88
2022-12-14T01:32:59.169Z,5.03
2022-12-14T01:35:26.500Z,5.95
2022-12-14T01:37:53.734Z,9.32
2022-12-14T01:40:20.983Z,7.07
2022-12-14T01:42:48.183Z,7.60
2022-12-14T01:45:22.912Z,4.78
2022-12-14T01:47:58.742Z,5.47
2022-12-14T01:50:37.888Z,4.90
2022-12-14T01:53:16.150Z,4.50
2022-12-14T01:55:48.841Z,4.72
2022-12-14T01:58:22.235Z,4.43
2022-12-14T02:00:54.220Z,4.85
2022-12-14T02:03:28.680Z,6.25
2022-12-14T02:06:01.236Z,6.07
2022-12-14T02:08:28.979Z,6.68
2022-12-14T02:10:56.618Z,5.82
2022-12-14T02:13:28.318Z,5.47
2022-12-14T02:15:56.029Z,4.90
2022-12-14T02:18:25.619Z,6.82
2022-12-14T02:21:07.242Z,5.35
2022-12-14T02:23:52.567Z,5.13
2022-12-14T02:26:52.832Z,6.07
2022-12-14T02:29:31.505Z,5.10
2022-12-14T02:32:17.763Z,5.82
2022-12-14T02:34:50.317Z,5.65
2022-12-14T02:37:33.248Z,6.32
2022-12-14T02:40:32.462Z,4.63
2022-12-14T02:43:18.822Z,5.95
2022-12-14T02:45:48.849Z,5.13
2022-12-14T02:48:24.626Z,4.90
2022-12-14T02:51:00.726Z,4.78
2022-12-14T02:53:38.952Z,5.03
2022-12-14T02:56:14.041Z,5.28
2022-12-14T02:58:48.023Z,6.05
2022-12-14T03:01:18.862Z,8.30
2022-12-14T03:03:46.504Z,5.72
2022-12-14T03:06:26.259Z,4.88
2022-12-14T03:09:12.097Z,4.10
2022-12-14T03:11:52.890Z,5.07
2022-12-14T03:14:35.080Z,4.68
2022-12-14T03:17:19.013Z,4.80
2022-12-14T03:20:11.786Z,5.63
2022-12-14T03:23:09.218Z,4.88
2022-12-14T03:25:48.629Z,4.88
2022-12-14T03:28:39.697Z,4.32
2022-12-14T03:31:13.234Z,4.95
2022-12-14T03:33:42.966Z,4.93
2022-12-14T03:36:41.873Z,5.28
2022-12-14T03:39:13.152Z,5.65
2022-12-14T03:41:55.072Z,4.90
2022-12-14T03:44:49.311Z,4.70
2022-12-14T03:47:53.129Z,5.05
2022-12-14T03:50:43.827Z,6.47
2022-12-14T03:53:49.859Z,5.63
2022-12-14T03:56:53.251Z,5.68
2022-12-14T03:59:46.548Z,6.25
2022-12-14T04:02:26.012Z,5.82
2022-12-14T04:05:02.164Z,7.28
2022-12-14T04:07:29.394Z,6.93
2022-12-14T04:10:33.489Z,6.13
2022-12-14T04:13:24.786Z,6.30
2022-12-14T04:16:11.362Z,6.90
2022-12-14T04:19:00.234Z,7.25
2022-12-14T04:21:56.739Z,6.40
2022-12-14T04:25:04.481Z,6.13
2022-12-14T04:27:58.299Z,6.63
2022-12-14T04:30:25.538Z,6.18
2022-12-14T04:32:54.640Z,7.03
2022-12-14T04:35:37.979Z,6.13
2022-12-14T04:38:13.754Z,6.85
2022-12-14T04:40:49.860Z,7.15
2022-12-14T04:43:21.310Z,6.75
2022-12-14T04:46:02.307Z,7.65
2022-12-14T04:48:36.076Z,6.47
2022-12-14T04:51:33.944Z,7.10
2022-12-14T04:54:16.419Z,7.10
2022-12-14T04:56:51.667Z,6.40
2022-12-14T04:59:19.111Z,6.28
2022-12-14T05:02:05.959Z,7.45
2022-12-14T05:04:55.068Z,6.50
2022-12-14T05:07:22.331Z,6.30
2022-12-14T05:09:49.578Z,6.30
2022-12-14T05:12:20.285Z,7.07
2022-12-14T05:15:10.602Z,6.35
2022-12-14T05:17:38.864Z,5.88
2022-12-14T05:20:12.859Z,6.93
2022-12-14T05:22:40.443Z,8.73
2022-12-14T05:25:07.539Z,9.02
2022-12-14T05:27:34.823Z,8.25
2022-12-14T05:30:02.096Z,9.25
2022-12-14T05:32:29.589Z,9.00
2022-12-14T05:34:56.895Z,7.60
2022-12-14T05:37:24.162Z,8.68
2022-12-14T05:39:51.439Z,9.23
2022-12-14T05:42:18.767Z,10.32
2022-12-14T05:44:45.993Z,7.75
2022-12-14T05:47:14.220Z,7.80
2022-12-14T05:49:41.555Z,10.43
2022-12-14T05:52:08.858Z,8.95
2022-12-14T05:54:36.104Z,10.18
2022-12-14T05:57:03.436Z,8.82
2022-12-14T05:59:31.010Z,10.68
2022-12-14T06:01:58.368Z,7.85
2022-12-14T06:04:25.764Z,7.35
2022-12-14T06:06:53.102Z,7.22
2022-12-14T06:09:20.626Z,8.55
2022-12-14T06:11:49.412Z,7.75
2022-12-14T06:14:17.056Z,7.88
2022-12-14T06:16:45.916Z,7.78
2022-12-14T06:19:14.255Z,9.10
2022-12-14T06:21:42.636Z,7.90
2022-12-14T06:24:12.188Z,8.63
2022-12-14T06:26:43.152Z,8.88
2022-12-14T06:29:20.737Z,7.68
2022-12-14T06:31:48.986Z,8.55
2022-12-14T06:34:17.294Z,8.20
2022-12-14T06:36:46.856Z,7.95
2022-12-14T06:39:16.706Z,7.63
2022-12-14T06:41:44.194Z,7.93
2022-12-14T06:44:13.681Z,9.18
2022-12-14T06:46:41.264Z,7.90
2022-12-14T06:49:08.609Z,9.00
2022-12-14T06:51:42.002Z,8.73
2022-12-14T06:54:13.699Z,8.15
2022-12-14T06:56:41.391Z,7.80
2022-12-14T06:59:09.096Z,8.70
2022-12-14T07:01:36.896Z,7.68
2022-12-14T07:04:05.022Z,7.80
2022-12-14T07:06:35.531Z,7.50
2022-12-14T07:09:04.698Z,7.95
2022-12-14T07:11:32.093Z,8.20
2022-12-14T07:14:01.311Z,7.55
2022-12-14T07:16:31.784Z,7.88
2022-12-14T07:18:59.491Z,8.50
2022-12-14T07:21:26.984Z,9.30
2022-12-14T07:23:54.479Z,10.38
2022-12-14T07:26:26.730Z,11.82
2022-12-14T07:28:54.620Z,10.20
2022-12-14T07:31:24.132Z,9.68
2022-12-14T07:33:59.360Z,9.80
2022-12-14T07:36:28.971Z,9.85
2022-12-14T07:38:57.056Z,8.85
2022-12-14T07:41:30.772Z,8.15
2022-12-14T07:44:00.588Z,6.30
2022-12-14T07:46:29.619Z,8.77
2022-12-14T07:48:57.988Z,10.25
2022-12-14T07:51:28.750Z,9.10
2022-12-14T07:53:56.447Z,8.82
2022-12-14T07:56:29.589Z,9.15
2022-12-14T07:58:58.141Z,9.65
2022-12-14T08:01:33.948Z,9.77
2022-12-14T08:04:06.664Z,9.88
2022-12-14T08:06:34.463Z,9.65
2022-12-14T08:09:02.143Z,10.15
2022-12-14T08:11:29.624Z,9.35
2022-12-14T08:14:06.216Z,9.70
2022-12-14T08:16:33.828Z,9.00
2022-12-14T08:19:01.405Z,9.60
2022-12-14T08:21:29.153Z,8.27
2022-12-14T08:23:57.123Z,8.10
2022-12-14T08:26:28.778Z,8.32
2022-12-14T08:29:00.666Z,7.22
2022-12-14T08:31:28.404Z,7.85
2022-12-14T08:33:56.124Z,7.00
2022-12-14T08:36:26.876Z,8.32
2022-12-14T08:39:06.424Z,7.05
2022-12-14T08:41:34.200Z,8.38
2022-12-14T08:44:03.027Z,7.70
2022-12-14T08:46:33.088Z,7.60
2022-12-14T08:49:00.428Z,7.65
2022-12-14T08:51:28.762Z,8.23
2022-12-14T08:53:56.364Z,7.95
2022-12-14T08:56:25.699Z,8.63
2022-12-14T08:58:53.392Z,8.90
2022-12-14T09:01:28.198Z,7.72
2022-12-14T09:04:03.853Z,8.50
2022-12-14T09:06:31.256Z,7.65
2022-12-14T09:08:58.709Z,8.27
2022-12-14T09:11:25.977Z,8.05
2022-12-14T09:13:56.924Z,9.30
2022-12-14T09:16:26.438Z,8.43
2022-12-14T09:18:54.190Z,8.80
2022-12-14T09:21:21.780Z,9.02
2022-12-14T09:23:51.400Z,8.55
2022-12-14T09:26:23.872Z,8.88
2022-12-14T09:28:53.831Z,9.05
2022-12-14T09:31:22.987Z,8.10
2022-12-14T09:33:50.544Z,9.10
2022-12-14T09:36:20.377Z,9.05
2022-12-14T09:38:51.619Z,9.15
2022-12-14T09:41:34.648Z,9.65
2022-12-14T09:44:18.174Z,8.57
2022-12-14T09:47:03.918Z,8.90
2022-12-14T09:50:04.148Z,9.13
2022-12-14T09:52:52.764Z,9.48
2022-12-14T09:55:37.065Z,9.60
2022-12-14T09:58:05.205Z,9.52
2022-12-14T10:00:37.711Z,11.40
2022-12-14T10:03:07.150Z,11.02
2022-12-14T10:06:06.684Z,12.30
2022-12-14T10:08:54.206Z,11.27
2022-12-14T10:11:34.959Z,11.88
2022-12-14T10:14:26.611Z,11.48
2022-12-14T10:16:53.902Z,12.43
2022-12-14T10:19:21.249Z,13.00
2022-12-14T10:22:12.268Z,12.90
2022-12-14T10:24:44.982Z,12.93
2022-12-14T10:27:22.997Z,13.30
2022-12-14T10:30:05.378Z,13.13
2022-12-14T10:32:40.650Z,12.10
2022-12-14T10:35:19.491Z,13.70
2022-12-14T10:37:56.033Z,12.32
2022-12-14T10:40:35.283Z,12.35
2022-12-14T10:43:32.098Z,11.50
2022-12-14T10:46:16.241Z,11.95
2022-12-14T10:48:45.263Z,9.95
2022-12-14T10:51:33.894Z,13.10
2022-12-14T10:54:31.873Z,12.05
2022-12-14T10:56:59.240Z,12.88
2022-12-14T10:59:36.941Z,12.55
2022-12-14T11:02:17.658Z,12.48
2022-12-14T11:04:45.083Z,12.18
2022-12-14T11:07:15.898Z,13.05
2022-12-14T11:09:43.643Z,12.35
2022-12-14T11:12:13.611Z,12.80
2022-12-14T11:15:02.016Z,12.32
2022-12-14T11:17:37.723Z,11.52
2022-12-14T11:20:05.169Z,11.50
2022-12-14T11:22:44.773Z,11.85
2022-12-14T11:25:27.210Z,12.32
2022-12-14T11:27:54.889Z,11.88
2022-12-14T11:30:22.223Z,11.52
2022-12-14T11:32:49.861Z,11.77
2022-12-14T11:35:20.184Z,11.75
2022-12-14T11:37:51.117Z,12.30
2022-12-14T11:40:25.452Z,11.95
2022-12-14T11:42:59.721Z,10.95
2022-12-14T11:45:26.570Z,13.02
2022-12-14T11:48:13.618Z,11.18
2022-12-14T11:50:41.335Z,11.93
2022-12-14T11:53:14.630Z,11.75
2022-12-14T11:55:48.186Z,12.18
2022-12-14T11:58:23.077Z,11.97
2022-12-14T12:00:55.596Z,12.65
2022-12-14T12:03:27.768Z,13.10
2022-12-14T12:05:59.837Z,12.90
2022-12-14T12:08:30.070Z,12.57
2022-12-14T12:11:02.870Z,11.27
2022-12-14T12:13:37.128Z,12.27
2022-12-14T12:16:16.848Z,11.13
2022-12-14T12:18:46.490Z,11.63
2022-12-14T12:21:13.951Z,12.75
2022-12-14T12:24:01.794Z,10.05
2022-12-14T12:26:37.998Z,11.55
2022-12-14T12:29:10.594Z,12.93
2022-12-14T12:32:05.005Z,13.30
2022-12-14T12:34:51.447Z,11.63
2022-12-14T12:37:27.406Z,12.02
2022-12-14T12:40:02.412Z,12.77
2022-12-14T12:42:46.488Z,11.55
2022-12-14T12:45:22.294Z,11.82
2022-12-14T12:48:12.916Z,10.90
2022-12-14T12:50:49.759Z,11.27
2022-12-14T12:53:21.372Z,10.55
2022-12-14T12:55:53.683Z,10.35
2022-12-14T12:58:27.719Z,11.85
2022-12-14T13:00:58.534Z,12.18
2022-12-14T13:03:25.802Z,10.85
2022-12-14T13:05:55.306Z,12.63
2022-12-14T13:08:34.838Z,11.55
2022-12-14T13:11:25.645Z,10.40
2022-12-14T13:14:18.537Z,11.77
2022-12-14T13:16:46.573Z,13.20
2022-12-14T13:19:50.634Z,11.45
2022-12-14T13:22:27.814Z,13.80
2022-12-14T13:24:59.539Z,13.27
2022-12-14T13:27:43.318Z,12.10
2022-12-14T13:30:30.020Z,11.00
2022-12-14T13:33:24.547Z,13.27
2022-12-14T13:35:57.377Z,12.73
2022-12-14T13:39:02.846Z,13.23
2022-12-14T13:41:52.697Z,12.68
2022-12-14T13:44:45.020Z,12.02
2022-12-14T13:47:20.081Z,12.00
2022-12-14T13:50:18.580Z,16.55
2022-12-14T13:52:46.735Z,12.35
2022-12-14T13:55:32.373Z,16.48
2022-12-14T13:58:33.836Z,13.38
2022-12-14T14:01:02.317Z,12.57
2022-12-14T14:03:35.548Z,12.35
2022-12-14T14:06:08.716Z,11.82
2022-12-14T14:08:41.798Z,13.40
2022-12-14T14:11:39.709Z,15.52
2022-12-14T14:14:41.443Z,15.52
2022-12-14T14:17:46.703Z,16.17
2022-12-14T14:20:31.690Z,14.45
2022-12-14T14:23:16.898Z,14.75
2022-12-14T14:26:10.261Z,13.32
2022-12-14T14:28:38.302Z,14.15
2022-12-14T14:31:06.229Z,14.02
2022-12-14T14:33:49.324Z,14.30
2022-12-14T14:36:33.634Z,15.05
2022-12-14T14:39:02.449Z,15.00
2022-12-14T14:41:36.251Z,15.27
2022-12-14T14:44:07.632Z,12.25
2022-12-14T14:46:46.061Z,15.80
2022-12-14T14:49:35.515Z,14.38
2022-12-14T14:52:39.501Z,15.57
2022-12-14T14:55:53.329Z,14.93
2022-12-14T14:58:35.339Z,15.15
2022-12-14T15:01:13.123Z,14.98
2022-12-14T15:04:03.980Z,15.32
2022-12-14T15:06:40.960Z,16.08
2022-12-14T15:09:21.152Z,15.43
2022-12-14T15:11:51.517Z,14.82
2022-12-14T15:14:28.149Z,15.63
2022-12-14T15:16:55.414Z,15.27
2022-12-14T15:19:22.819Z,15.13
2022-12-14T15:22:03.429Z,14.02
2022-12-14T15:24:37.225Z,16.00
2022-12-14T15:27:22.110Z,15.13
2022-12-14T15:32:18.345Z,15.93
2022-12-14T15:35:03.629Z,15.10
2022-12-14T15:37:46.061Z,15.27
2022-12-14T15:40:25.418Z,14.95
2022-12-14T15:42:54.848Z,14.15
2022-12-14T15:45:28.409Z,14.85
2022-12-14T15:47:56.109Z,14.68
2022-12-14T15:50:28.674Z,19.48
2022-12-14T15:53:21.971Z,20.48
2022-12-14T15:55:59.833Z,16.45
2022-12-14T15:58:35.714Z,16.88
2022-12-14T16:03:55.456Z,15.63
2022-12-14T16:06:26.284Z,18.60
2022-12-14T16:09:00.395Z,17.42
2022-12-14T16:11:42.017Z,16.00
2022-12-14T16:14:32.531Z,16.42
2022-12-14T16:17:00.812Z,16.67
2022-12-14T16:19:44.970Z,16.60
2022-12-14T16:22:23.727Z,19.45
2022-12-14T16:25:16.882Z,19.55
2022-12-14T16:27:50.285Z,18.80
2022-12-14T16:30:27.893Z,18.10
2022-12-14T16:33:06.802Z,21.10
2022-12-14T16:35:36.436Z,19.05
2022-12-14T16:38:11.676Z,17.88
2022-12-14T16:40:51.704Z,19.38
2022-12-14T16:43:27.642Z,18.63
2022-12-14T16:45:55.570Z,19.63
2022-12-14T16:48:24.840Z,17.48
2022-12-14T16:50:58.087Z,19.58
2022-12-14T16:53:32.131Z,18.42
2022-12-14T16:56:05.726Z,20.10
2022-12-14T16:58:33.433Z,18.98
2022-12-14T17:01:03.149Z,21.50
2022-12-14T17:03:32.129Z,19.40
2022-12-14T17:06:05.435Z,20.02
2022-12-14T17:08:34.222Z,21.02
2022-12-14T17:11:02.437Z,19.95
2022-12-14T17:13:30.522Z,22.67
2022-12-14T17:16:05.965Z,20.40
2022-12-14T17:18:37.545Z,22.48
2022-12-14T17:21:05.653Z,21.75
2022-12-14T17:23:33.702Z,21.30
2022-12-14T17:26:01.576Z,20.50
2022-12-14T17:28:32.777Z,21.63
2022-12-14T17:31:01.973Z,22.67
2022-12-14T17:33:33.098Z,22.52
2022-12-14T17:39:48.364Z,21.52
2022-12-14T17:42:18.280Z,24.08
2022-12-14T17:44:52.463Z,27.20
2022-12-14T17:51:07.382Z,24.30
2022-12-14T17:53:36.836Z,24.58
2022-12-14T17:56:04.789Z,23.88
2022-12-14T17:58:32.802Z,27.77
2022-12-14T18:01:00.110Z,26.33
2022-12-14T18:03:32.454Z,25.23
2022-12-14T18:06:00.638Z,25.00
2022-12-14T18:08:27.937Z,27.35
2022-12-14T18:10:59.068Z,25.80
2022-12-14T18:13:27.582Z,26.05
2022-12-14T18:15:56.034Z,26.63
2022-12-14T18:18:27.647Z,24.25
2022-12-14T18:21:02.944Z,28.13
2022-12-14T18:23:31.340Z,31.55
2022-12-14T18:25:59.757Z,27.52
2022-12-14T18:28:27.034Z,29.60
2022-12-14T18:31:02.296Z,28.98
2022-12-14T18:33:30.266Z,28.30
2022-12-14T18:35:58.371Z,29.98
2022-12-14T18:44:45.227Z,25.33
2022-12-14T18:47:40.183Z,26.85
2022-12-14T18:50:00.144Z,25.05
2022-12-14T18:52:27.573Z,27.27
2022-12-14T18:54:55.528Z,31.25
2022-12-14T18:57:22.963Z,28.95
2022-12-14T18:59:50.397Z,32.67
2022-12-14T19:02:18.257Z,29.70
2022-12-14T19:04:49.254Z,30.88
2022-12-14T19:07:17.472Z,28.67
2022-12-14T19:09:45.573Z,31.02
2022-12-14T19:12:13.136Z,27.67
2022-12-14T19:14:40.929Z,27.75
2022-12-14T19:17:08.293Z,27.85
2022-12-14T19:19:41.084Z,29.48
2022-12-14T19:22:11.794Z,29.83
2022-12-14T19:24:39.057Z,29.15
2022-12-14T19:27:06.609Z,28.45
2022-12-14T19:29:35.558Z,32.92
2022-12-14T19:32:05.593Z,30.88
2022-12-14T19:34:33.426Z,29.85
2022-12-14T19:37:00.815Z,29.92
2022-12-14T19:39:28.139Z,29.13
2022-12-14T19:41:55.985Z,31.17
2022-12-14T19:44:23.468Z,32.35
2022-12-14T19:46:50.779Z,29.77
2022-12-14T19:49:18.401Z,30.38
2022-12-14T19:51:45.706Z,33.00
2022-12-14T19:54:13.066Z,31.92
2022-12-14T19:56:40.478Z,32.53
2022-12-14T19:59:08.032Z,33.83
2022-12-14T20:01:39.702Z,29.58
2022-12-14T20:04:09.355Z,30.77
2022-12-14T20:06:36.841Z,31.52
2022-12-14T20:09:06.190Z,34.75
2022-12-14T20:11:33.584Z,31.48
2022-12-14T20:14:03.298Z,32.42
2022-12-14T20:16:31.023Z,31.67
2022-12-14T20:18:58.683Z,30.83
2022-12-14T20:21:29.376Z,33.47
2022-12-14T20:23:59.918Z,33.20
2022-12-14T20:26:27.324Z,30.60
2022-12-14T20:28:57.092Z,36.83
2022-12-14T20:31:24.469Z,31.15
2022-12-14T20:33:51.995Z,34.83
2022-12-14T20:36:19.459Z,35.92
2022-12-14T20:38:49.288Z,33.78
2022-12-14T20:41:17.296Z,34.67
2022-12-14T20:43:45.525Z,34.95
2022-12-14T20:46:29.451Z,35.25
2022-12-14T20:48:57.809Z,35.17
2022-12-14T20:51:25.170Z,35.65
2022-12-14T20:53:52.476Z,34.35
2022-12-14T20:56:20.867Z,32.20
2022-12-14T20:58:49.079Z,33.60
2022-12-14T21:01:17.329Z,35.25
2022-12-14T21:03:50.764Z,31.30
2022-12-14T21:06:20.977Z,31.35
2022-12-14T21:09:10.337Z,32.83
2022-12-14T21:12:06.027Z,28.48
2022-12-14T21:14:42.930Z,28.02
2022-12-14T21:17:11.056Z,28.60
2022-12-14T21:19:38.489Z,31.08
2022-12-14T21:22:07.242Z,29.15
2022-12-14T21:27:28.146Z,30.55
2022-12-14T21:29:55.457Z,28.60
2022-12-14T21:32:23.160Z,27.73
2022-12-14T21:34:50.459Z,31.48
2022-12-14T21:37:17.897Z,31.38
2022-12-14T21:39:51.878Z,31.08
2022-12-14T21:42:22.070Z,26.85
2022-12-14T21:44:50.595Z,28.13
2022-12-14T21:47:28.485Z,29.77
2022-12-14T21:49:56.190Z,27.35
2022-12-14T21:52:25.309Z,28.92
2022-12-14T21:54:52.624Z,31.08
2022-12-14T21:57:42.941Z,27.95
2022-12-14T22:00:18.018Z,26.08
2022-12-14T22:02:45.724Z,28.08
2022-12-14T22:05:14.281Z,27.38
2022-12-14T22:07:42.008Z,29.17
2022-12-14T22:10:09.239Z,28.75
2022-12-14T22:12:36.528Z,27.73
2022-12-14T22:19:14.615Z,24.42
2022-12-14T22:21:41.870Z,27.88
2022-12-14T22:24:10.077Z,30.55
2022-12-14T22:26:38.154Z,28.70
2022-12-14T22:29:06.550Z,32.08
2022-12-14T22:31:34.041Z,30.63
2022-12-14T22:34:01.430Z,29.48
2022-12-14T22:36:28.772Z,29.73
2022-12-14T22:38:57.576Z,26.05
2022-12-14T22:41:25.750Z,27.10
2022-12-14T22:43:56.882Z,27.60
2022-12-14T22:46:25.648Z,26.55
2022-12-14T22:48:53.319Z,27.08
2022-12-14T22:51:21.387Z,26.38
2022-12-14T22:53:49.760Z,26.15
2022-12-14T22:56:27.196Z,27.52
2022-12-14T23:02:45.319Z,26.25
2022-12-14T23:05:15.205Z,28.80
2022-12-14T23:07:42.808Z,26.63
2022-12-14T23:10:29.277Z,26.75
2022-12-14T23:13:15.028Z,28.60
2022-12-14T23:16:01.132Z,28.35
2022-12-14T23:18:47.132Z,25.30
2022-12-14T23:21:33.371Z,29.90
2022-12-14T23:24:19.356Z,33.15
2022-12-14T23:27:09.397Z,35.95
2022-12-14T23:29:55.549Z,31.38
2022-12-14T23:32:41.753Z,30.83
2022-12-14T23:35:28.020Z,30.83
2022-12-14T23:38:13.793Z,28.65
2022-12-14T23:40:59.725Z,26.05
2022-12-14T23:43:45.862Z,26.40
2022-12-14T23:46:32.050Z,27.17
2022-12-14T23:49:18.242Z,26.25
2022-12-14T23:52:04.140Z,28.70
2022-12-14T23:54:50.315Z,25.67
2022-12-14T23:57:36.456Z,25.27
